createdAt,value
2022-09-11T00:00:49.688Z,13.60
2022-09-11T00:03:16.523Z,17.52
2022-09-11T00:05:44.320Z,14.98
2022-09-11T00:08:13.812Z,13.10
2022-09-11T00:10:42.859Z,15.63
2022-09-11T00:13:22.842Z,12.23
2022-09-11T00:15:51.541Z,12.25
2022-09-11T00:18:23.547Z,15.27
2022-09-11T00:20:54.906Z,16.95
2022-09-11T00:23:23.713Z,13.52
2022-09-11T00:25:50.495Z,18.08
2022-09-11T00:28:20.247Z,15.60
2022-09-11T00:30:56.881Z,14.38
2022-09-11T00:33:23.495Z,13.13
2022-09-11T00:36:01.385Z,14.82
2022-09-11T00:38:30.029Z,17.33
2022-09-11T00:40:59.202Z,17.95
2022-09-11T00:43:28.663Z,13.48
2022-09-11T00:46:03.286Z,15.90
2022-09-11T00:48:34.052Z,16.48
2022-09-11T00:51:03.895Z,18.40
2022-09-11T00:53:34.504Z,13.20
2022-09-11T00:56:03.966Z,13.18
2022-09-11T00:58:35.935Z,14.20
2022-09-11T01:01:03.594Z,14.60
2022-09-11T01:03:32.347Z,19.83
2022-09-11T01:05:59.711Z,16.15
2022-09-11T01:08:27.685Z,18.17
2022-09-11T01:11:22.056Z,14.80
2022-09-11T01:14:24.144Z,17.67
2022-09-11T01:17:15.294Z,15.40
2022-09-11T01:20:00.493Z,14.75
2022-09-11T01:22:42.263Z,12.50
2022-09-11T01:25:09.219Z,16.45
2022-09-11T01:27:47.245Z,16.88
2022-09-11T01:30:18.330Z,19.10
2022-09-11T01:33:15.497Z,13.07
2022-09-11T01:35:54.461Z,14.02
2022-09-11T01:38:46.817Z,16.38
2022-09-11T01:43:51.895Z,19.98
2022-09-11T01:46:23.057Z,17.55
2022-09-11T01:49:00.980Z,19.57
2022-09-11T01:51:31.656Z,16.33
2022-09-11T01:54:00.605Z,16.25
2022-09-11T01:56:32.669Z,14.65
2022-09-11T02:01:33.845Z,18.15
2022-09-11T02:04:07.177Z,19.00
2022-09-11T02:07:23.359Z,21.83
2022-09-11T02:09:56.668Z,16.58
2022-09-11T02:12:32.224Z,17.80
2022-09-11T02:14:59.568Z,15.80
2022-09-11T02:17:48.187Z,16.50
2022-09-11T02:20:15.747Z,13.38
2022-09-11T02:22:43.278Z,14.50
2022-09-11T02:25:10.776Z,19.30
2022-09-11T02:27:37.351Z,19.95
2022-09-11T02:30:04.234Z,21.40
2022-09-11T02:32:32.702Z,19.77
2022-09-11T02:35:00.339Z,16.58
2022-09-11T02:37:49.187Z,17.98
2022-09-11T02:40:37.031Z,14.38
2022-09-11T02:43:09.388Z,14.02
2022-09-11T02:46:00.539Z,18.38
2022-09-11T02:49:02.639Z,18.10
2022-09-11T02:51:48.615Z,15.07
2022-09-11T02:54:33.363Z,14.30
2022-09-11T02:57:25.504Z,15.02
2022-09-11T02:59:56.352Z,19.55
2022-09-11T03:02:24.955Z,19.40
2022-09-11T03:04:51.485Z,22.98
2022-09-11T03:07:18.054Z,22.58
2022-09-11T03:09:44.593Z,16.65
2022-09-11T03:12:11.553Z,22.30
2022-09-11T03:14:38.245Z,21.95
2022-09-11T03:17:05.427Z,15.88
2022-09-11T03:19:32.108Z,18.00
2022-09-11T03:21:58.820Z,16.67
2022-09-11T03:24:26.432Z,16.50
2022-09-11T03:26:53.076Z,16.58
2022-09-11T03:29:19.571Z,18.60
2022-09-11T03:31:47.378Z,20.05
2022-09-11T03:34:14.483Z,19.08
2022-09-11T03:36:41.138Z,18.83
2022-09-11T03:39:07.648Z,17.00
2022-09-11T03:41:34.159Z,16.88
2022-09-11T03:44:00.814Z,12.50
2022-09-11T03:46:27.926Z,13.60
2022-09-11T03:48:54.611Z,19.40
2022-09-11T03:51:21.334Z,16.60
2022-09-11T03:53:48.263Z,14.70
2022-09-11T03:56:15.064Z,19.25
2022-09-11T03:58:41.612Z,19.27
2022-09-11T04:01:12.598Z,18.98
2022-09-11T04:03:40.719Z,19.48
2022-09-11T04:06:07.977Z,21.55
2022-09-11T04:08:34.668Z,21.10
2022-09-11T04:11:03.937Z,19.98
2022-09-11T04:13:32.914Z,17.95
2022-09-11T04:16:19.171Z,20.10
2022-09-11T04:18:46.923Z,19.33
2022-09-11T04:21:15.947Z,18.65
2022-09-11T04:23:42.651Z,18.40
2022-09-11T04:26:17.897Z,30.00
2022-09-11T04:28:45.255Z,22.15
2022-09-11T04:31:13.637Z,17.95
2022-09-11T04:33:41.009Z,22.23
2022-09-11T04:36:10.130Z,18.58
2022-09-11T04:38:36.900Z,21.50
2022-09-11T04:41:04.502Z,20.63
2022-09-11T04:43:31.711Z,17.98
2022-09-11T04:46:15.268Z,19.65
2022-09-11T04:48:51.673Z,23.30
2022-09-11T04:51:23.905Z,18.75
2022-09-11T04:53:51.998Z,19.55
2022-09-11T04:56:21.258Z,18.98
2022-09-11T04:58:55.118Z,18.55
2022-09-11T05:01:23.224Z,15.40
2022-09-11T05:03:49.881Z,12.68
2022-09-11T05:06:16.587Z,14.70
2022-09-11T05:08:44.900Z,13.48
2022-09-11T05:11:13.533Z,16.08
2022-09-11T05:13:41.422Z,25.35
2022-09-11T05:16:11.173Z,14.30
2022-09-11T05:18:40.063Z,17.42
2022-09-11T05:21:16.728Z,19.25
2022-09-11T05:23:47.473Z,19.13
2022-09-11T05:26:17.114Z,11.40
2022-09-11T05:28:44.279Z,11.98
2022-09-11T05:31:13.090Z,14.63
2022-09-11T05:33:40.322Z,8.23
2022-09-11T05:36:07.288Z,12.25
2022-09-11T05:38:36.620Z,9.73
2022-09-11T05:41:06.374Z,12.05
2022-09-11T05:43:36.379Z,11.32
2022-09-11T05:46:03.345Z,12.93
2022-09-11T05:48:32.045Z,9.07
2022-09-11T05:51:03.594Z,12.63
2022-09-11T05:53:33.702Z,12.15
2022-09-11T05:56:12.472Z,12.45
2022-09-11T05:58:39.223Z,8.35
2022-09-11T06:01:14.455Z,10.48
2022-09-11T06:03:42.156Z,15.27
2022-09-11T06:06:11.383Z,13.02
2022-09-11T06:08:39.567Z,11.05
2022-09-11T06:11:07.676Z,15.35
2022-09-11T06:13:39.569Z,7.40
2022-09-11T06:18:42.509Z,13.25
2022-09-11T06:21:12.317Z,10.30
2022-09-11T06:23:42.105Z,17.42
2022-09-11T06:26:11.393Z,9.45
2022-09-11T06:28:39.211Z,8.23
2022-09-11T06:31:08.031Z,8.45
2022-09-11T06:33:36.295Z,10.90
2022-09-11T06:36:07.883Z,10.23
2022-09-11T06:38:34.405Z,10.45
2022-09-11T06:41:05.514Z,11.77
2022-09-11T06:43:33.106Z,9.07
2022-09-11T06:46:06.810Z,10.75
2022-09-11T06:48:33.574Z,16.40
2022-09-11T06:51:07.678Z,11.73
2022-09-11T06:53:34.602Z,13.40
2022-09-11T06:56:02.452Z,13.45
2022-09-11T06:58:29.537Z,12.05
2022-09-11T07:00:56.999Z,12.02
2022-09-11T07:03:23.647Z,11.70
2022-09-11T07:05:50.259Z,8.55
2022-09-11T07:08:16.771Z,9.73
2022-09-11T07:10:43.293Z,11.82
2022-09-11T07:13:10.978Z,12.80
2022-09-11T07:15:37.578Z,14.30
2022-09-11T07:18:04.164Z,10.70
2022-09-11T07:20:31.519Z,15.15
2022-09-11T07:22:58.589Z,11.85
2022-09-11T07:25:25.734Z,14.55
2022-09-11T07:27:52.909Z,15.82
2022-09-11T07:30:19.880Z,15.02
2022-09-11T07:32:46.657Z,14.43
2022-09-11T07:35:21.661Z,17.40
2022-09-11T07:37:50.834Z,14.60
2022-09-11T07:40:18.290Z,10.95
2022-09-11T07:42:44.887Z,14.23
2022-09-11T07:45:11.731Z,7.95
2022-09-11T07:47:38.619Z,11.35
2022-09-11T07:50:06.148Z,9.52
2022-09-11T07:52:33.075Z,9.85
2022-09-11T07:55:01.393Z,8.30
2022-09-11T07:57:30.129Z,9.25
2022-09-11T07:59:56.721Z,11.60
2022-09-11T08:02:23.314Z,7.78
2022-09-11T08:04:51.688Z,9.93
2022-09-11T08:07:18.704Z,9.15
2022-09-11T08:09:45.280Z,7.32
2022-09-11T08:12:12.316Z,9.15
2022-09-11T08:14:38.973Z,10.45
2022-09-11T08:17:05.473Z,11.05
2022-09-11T08:19:32.977Z,12.05
2022-09-11T08:21:59.555Z,11.30
2022-09-11T08:24:27.397Z,7.50
2022-09-11T08:26:54.195Z,11.93
2022-09-11T08:29:20.740Z,8.02
2022-09-11T08:31:47.266Z,8.93
2022-09-11T08:34:14.035Z,8.02
2022-09-11T08:36:40.623Z,9.93
2022-09-11T08:39:08.993Z,9.65
2022-09-11T08:41:58.190Z,8.25
2022-09-11T08:44:38.526Z,8.50
2022-09-11T08:47:10.258Z,5.07
2022-09-11T08:49:42.994Z,8.57
2022-09-11T08:52:13.350Z,6.55
2022-09-11T08:54:42.667Z,5.65
2022-09-11T08:57:19.497Z,7.07
2022-09-11T09:00:12.305Z,6.13
2022-09-11T09:03:03.400Z,12.02
2022-09-11T09:05:35.519Z,8.02
2022-09-11T09:08:20.259Z,8.57
2022-09-11T09:10:53.217Z,5.72
2022-09-11T09:13:19.683Z,8.00
2022-09-11T09:16:12.648Z,6.82
2022-09-11T09:18:39.170Z,5.00
2022-09-11T09:21:20.676Z,5.28
2022-09-11T09:23:54.620Z,7.15
2022-09-11T09:26:24.252Z,5.50
2022-09-11T09:28:54.851Z,7.55
2022-09-11T09:31:24.091Z,4.70
2022-09-11T09:34:03.967Z,5.15
2022-09-11T09:36:37.694Z,4.85
2022-09-11T09:39:12.983Z,6.30
2022-09-11T09:42:08.422Z,8.32
2022-09-11T09:45:02.759Z,7.40
2022-09-11T09:47:29.771Z,6.03
2022-09-11T09:49:58.422Z,5.03
2022-09-11T09:52:34.261Z,4.70
2022-09-11T09:55:06.951Z,4.78
2022-09-11T09:57:35.921Z,3.05
2022-09-11T10:00:15.499Z,7.65
2022-09-11T10:02:49.341Z,9.88
2022-09-11T10:05:18.187Z,6.40
2022-09-11T10:07:53.883Z,5.30
2022-09-11T10:10:41.151Z,4.05
2022-09-11T10:13:25.077Z,5.85
2022-09-11T10:16:03.913Z,6.45
2022-09-11T10:18:33.089Z,6.10
2022-09-11T10:21:11.554Z,8.25
2022-09-11T10:23:51.582Z,5.85
2022-09-11T10:26:43.190Z,7.03
2022-09-11T10:29:21.322Z,9.50
2022-09-11T10:31:53.457Z,9.35
2022-09-11T10:34:22.428Z,5.30
2022-09-11T10:37:17.724Z,10.85
2022-09-11T10:39:47.293Z,6.68
2022-09-11T10:42:23.207Z,10.57
2022-09-11T10:44:51.534Z,9.10
2022-09-11T10:47:22.152Z,6.68
2022-09-11T10:49:49.357Z,17.48
2022-09-11T10:52:15.863Z,8.93
2022-09-11T10:55:07.506Z,9.50
2022-09-11T10:57:49.978Z,6.32
2022-09-11T11:00:16.445Z,11.30
2022-09-11T11:02:50.517Z,13.15
2022-09-11T11:05:29.598Z,12.50
2022-09-11T11:08:05.555Z,10.13
2022-09-11T11:10:51.245Z,11.88
2022-09-11T11:13:42.650Z,6.63
2022-09-11T11:16:47.542Z,7.80
2022-09-11T11:19:43.324Z,6.07
2022-09-11T11:23:16.445Z,7.03
2022-09-11T11:25:48.718Z,4.97
2022-09-11T11:28:53.771Z,7.65
2022-09-11T11:31:44.367Z,6.80
2022-09-11T11:34:51.323Z,6.55
2022-09-11T11:37:26.262Z,6.05
2022-09-11T11:40:24.883Z,8.60
2022-09-11T11:42:56.611Z,14.77
2022-09-11T11:45:33.146Z,20.25
2022-09-11T11:48:05.861Z,9.55
2022-09-11T11:50:45.833Z,6.32
2022-09-11T11:53:39.062Z,5.30
2022-09-11T11:56:28.867Z,7.78
2022-09-11T11:59:14.163Z,9.13
2022-09-11T12:01:49.199Z,5.88
2022-09-11T12:04:27.605Z,4.05
2022-09-11T12:06:54.192Z,9.60
2022-09-11T12:09:20.833Z,6.68
2022-09-11T12:11:51.595Z,6.03
2022-09-11T12:14:29.959Z,5.25
2022-09-11T12:16:57.051Z,5.40
2022-09-11T12:19:27.803Z,7.40
2022-09-11T12:21:54.459Z,6.25
2022-09-11T12:24:24.469Z,8.82
2022-09-11T12:27:28.796Z,8.48
2022-09-11T12:29:57.494Z,8.13
2022-09-11T12:32:29.092Z,6.97
2022-09-11T12:35:01.821Z,6.00
2022-09-11T12:37:37.816Z,10.10
2022-09-11T12:40:49.768Z,5.50
2022-09-11T12:43:26.358Z,5.72
2022-09-11T12:45:53.124Z,7.28
2022-09-11T12:48:23.600Z,5.28
2022-09-11T12:50:57.084Z,16.00
2022-09-11T12:53:31.539Z,10.02
2022-09-11T12:56:01.320Z,6.68
2022-09-11T12:58:44.327Z,6.72
2022-09-11T13:01:11.744Z,7.32
2022-09-11T13:03:46.710Z,7.60
2022-09-11T13:06:13.769Z,21.58
2022-09-11T13:08:54.152Z,6.68
2022-09-11T13:11:54.098Z,5.65
2022-09-11T13:14:29.566Z,6.30
2022-09-11T13:16:57.816Z,7.80
2022-09-11T13:19:32.324Z,7.05
2022-09-11T13:21:58.903Z,6.43
2022-09-11T13:24:32.413Z,4.20
2022-09-11T13:27:04.074Z,5.07
2022-09-11T13:29:33.361Z,6.18
2022-09-11T13:32:05.406Z,7.18
2022-09-11T13:34:36.000Z,6.18
2022-09-11T13:37:10.344Z,7.28
2022-09-11T13:39:42.971Z,3.95
2022-09-11T13:42:18.074Z,3.50
2022-09-11T13:44:50.620Z,3.90
2022-09-11T13:47:20.210Z,3.25
2022-09-11T13:49:48.165Z,5.43
2022-09-11T13:52:15.447Z,3.78
2022-09-11T13:54:47.922Z,4.07
2022-09-11T13:57:23.051Z,3.60
2022-09-11T13:59:54.155Z,5.78
2022-09-11T14:02:40.737Z,6.28
2022-09-11T14:05:07.540Z,4.20
2022-09-11T14:07:41.188Z,4.63
2022-09-11T14:10:18.356Z,6.20
2022-09-11T14:13:27.796Z,3.55
2022-09-11T14:16:10.370Z,3.35
2022-09-11T14:18:52.841Z,2.97
2022-09-11T14:21:46.941Z,2.28
2022-09-11T14:24:35.025Z,4.43
2022-09-11T14:27:04.374Z,2.83
2022-09-11T14:29:32.662Z,2.55
2022-09-11T14:32:31.306Z,4.05
2022-09-11T14:34:58.962Z,4.88
2022-09-11T14:37:28.057Z,7.22
2022-09-11T14:40:00.292Z,5.68
2022-09-11T14:42:29.808Z,2.15
2022-09-11T14:44:56.487Z,4.25
2022-09-11T14:47:25.701Z,2.80
2022-09-11T14:49:54.048Z,2.10
2022-09-11T14:52:22.989Z,3.83
2022-09-11T14:54:49.655Z,5.13
2022-09-11T14:57:32.430Z,4.63
2022-09-11T14:59:59.571Z,2.63
2022-09-11T15:02:28.409Z,2.30
2022-09-11T15:04:57.323Z,2.17
2022-09-11T15:07:25.086Z,2.97
2022-09-11T15:09:53.392Z,3.00
2022-09-11T15:12:20.927Z,2.28
2022-09-11T15:14:57.777Z,2.67
2022-09-11T15:17:28.356Z,3.03
2022-09-11T15:19:54.879Z,2.45
2022-09-11T15:22:21.651Z,4.00
2022-09-11T15:24:49.886Z,1.67
2022-09-11T15:27:19.151Z,3.00
2022-09-11T15:29:46.220Z,2.30
2022-09-11T15:32:14.430Z,2.10
2022-09-11T15:34:42.045Z,2.72
2022-09-11T15:37:08.767Z,4.15
2022-09-11T15:39:35.410Z,3.75
2022-09-11T15:42:02.232Z,5.55
2022-09-11T15:44:29.180Z,3.65
2022-09-11T15:46:58.514Z,2.10
2022-09-11T15:49:28.119Z,1.95
2022-09-11T15:51:55.724Z,1.35
2022-09-11T15:54:23.599Z,3.00
2022-09-11T15:56:51.168Z,2.33
2022-09-11T15:59:17.817Z,2.85
2022-09-11T16:01:45.187Z,4.57
2022-09-11T16:04:22.092Z,3.00
2022-09-11T16:06:49.630Z,3.30
2022-09-11T16:09:20.121Z,2.92
2022-09-11T16:11:50.727Z,2.60
2022-09-11T16:14:24.303Z,2.22
2022-09-11T16:16:51.994Z,5.80
2022-09-11T16:19:21.171Z,2.72
2022-09-11T16:21:48.562Z,2.40
2022-09-11T16:24:15.524Z,1.45
2022-09-11T16:26:44.159Z,6.03
2022-09-11T16:29:15.259Z,3.20
2022-09-11T16:31:42.644Z,3.33
2022-09-11T16:34:10.325Z,2.38
2022-09-11T16:36:40.451Z,3.85
2022-09-11T16:39:15.474Z,2.88
2022-09-11T16:41:42.887Z,3.20
2022-09-11T16:44:12.467Z,4.45
2022-09-11T16:46:40.718Z,12.23
2022-09-11T16:49:07.522Z,2.67
2022-09-11T16:51:34.275Z,3.30
2022-09-11T16:54:01.534Z,2.88
2022-09-11T16:56:28.312Z,6.28
2022-09-11T16:58:55.411Z,5.30
2022-09-11T17:01:24.477Z,3.70
2022-09-11T17:03:53.167Z,5.43
2022-09-11T17:06:20.906Z,4.10
2022-09-11T17:08:50.480Z,4.22
2022-09-11T17:11:19.507Z,3.05
2022-09-11T17:13:46.618Z,4.75
2022-09-11T17:16:19.375Z,5.03
2022-09-11T17:18:51.286Z,3.35
2022-09-11T17:23:44.674Z,5.00
2022-09-11T17:26:14.196Z,4.03
2022-09-11T17:28:42.367Z,4.68
2022-09-11T17:31:14.485Z,5.05
2022-09-11T17:33:41.532Z,2.38
2022-09-11T17:36:10.382Z,8.48
2022-09-11T17:38:38.487Z,3.78
2022-09-11T17:41:07.539Z,7.32
2022-09-11T17:43:35.330Z,6.00
2022-09-11T17:46:13.850Z,10.75
2022-09-11T17:48:41.083Z,3.88
2022-09-11T17:51:20.219Z,8.43
2022-09-11T17:53:56.228Z,6.63
2022-09-11T17:56:26.017Z,5.82
2022-09-11T17:58:57.273Z,5.85
2022-09-11T18:01:25.649Z,6.93
2022-09-11T18:03:56.734Z,9.27
2022-09-11T18:06:26.334Z,8.40
2022-09-11T18:08:54.442Z,5.63
2022-09-11T18:11:21.027Z,4.78
2022-09-11T18:13:47.659Z,5.28
2022-09-11T18:16:14.277Z,4.97
2022-09-11T18:18:40.919Z,5.85
2022-09-11T18:21:09.659Z,5.05
2022-09-11T18:23:41.985Z,5.63
2022-09-11T18:26:10.353Z,6.22
2022-09-11T18:28:39.880Z,8.57
2022-09-11T18:31:07.002Z,12.40
2022-09-11T18:33:33.757Z,7.70
2022-09-11T18:36:10.402Z,4.35
2022-09-11T18:38:37.564Z,11.10
2022-09-11T18:41:04.567Z,6.75
2022-09-11T18:43:31.161Z,4.05
2022-09-11T18:46:02.070Z,5.03
2022-09-11T18:48:28.628Z,6.25
2022-09-11T18:50:55.197Z,6.35
2022-09-11T18:53:22.043Z,12.23
2022-09-11T18:55:48.599Z,3.55
2022-09-11T18:58:15.159Z,5.78
2022-09-11T19:00:41.799Z,7.38
2022-09-11T19:03:11.212Z,4.72
2022-09-11T19:05:37.824Z,4.45
2022-09-11T19:08:04.416Z,4.85
2022-09-11T19:10:31.003Z,4.30
2022-09-11T19:12:57.597Z,7.78
2022-09-11T19:15:25.421Z,5.13
2022-09-11T19:17:55.378Z,8.10
2022-09-11T19:20:22.111Z,4.22
2022-09-11T19:22:48.764Z,11.80
2022-09-11T19:25:16.064Z,9.30
2022-09-11T19:27:42.805Z,4.88
2022-09-11T19:30:09.802Z,6.53
2022-09-11T19:32:36.577Z,9.52
2022-09-11T19:35:04.182Z,9.27
2022-09-11T19:37:37.395Z,4.13
2022-09-11T19:40:05.167Z,7.13
2022-09-11T19:42:32.463Z,5.68
2022-09-11T19:45:00.317Z,6.50
2022-09-11T19:47:28.390Z,10.43
2022-09-11T19:49:55.365Z,9.05
2022-09-11T19:52:25.402Z,6.82
2022-09-11T19:54:53.864Z,8.70
2022-09-11T19:57:20.485Z,5.65
2022-09-11T19:59:47.165Z,6.80
2022-09-11T20:02:14.215Z,3.92
2022-09-11T20:04:40.967Z,10.13
2022-09-11T20:07:07.658Z,8.10
2022-09-11T20:09:34.523Z,9.35
2022-09-11T20:12:01.745Z,5.20
2022-09-11T20:14:29.593Z,5.60
2022-09-11T20:16:56.121Z,6.40
2022-09-11T20:19:24.874Z,6.50
2022-09-11T20:21:51.406Z,7.50
2022-09-11T20:24:18.044Z,7.38
2022-09-11T20:26:44.565Z,5.18
2022-09-11T20:29:15.958Z,10.77
2022-09-11T20:31:47.526Z,14.35
2022-09-11T20:34:15.931Z,8.40
2022-09-11T20:36:42.623Z,7.93
2022-09-11T20:39:13.002Z,6.43
2022-09-11T20:41:39.648Z,4.60
2022-09-11T20:44:06.212Z,9.45
2022-09-11T20:46:32.859Z,6.60
2022-09-11T20:49:00.907Z,6.30
2022-09-11T20:51:29.987Z,8.43
2022-09-11T20:53:56.700Z,5.10
2022-09-11T20:56:24.003Z,8.88
2022-09-11T20:58:51.631Z,6.57
2022-09-11T21:01:21.399Z,8.02
2022-09-11T21:03:54.143Z,5.70
2022-09-11T21:06:25.923Z,8.18
2022-09-11T21:08:57.920Z,7.18
2022-09-11T21:11:26.043Z,5.50
2022-09-11T21:13:53.051Z,11.10
2022-09-11T21:16:21.043Z,6.68
2022-09-11T21:18:52.800Z,5.35
2022-09-11T21:21:20.627Z,5.65
2022-09-11T21:23:47.634Z,9.45
2022-09-11T21:26:16.635Z,11.10
2022-09-11T21:28:43.619Z,6.53
2022-09-11T21:31:10.636Z,12.15
2022-09-11T21:33:38.262Z,13.18
2022-09-11T21:36:05.903Z,4.70
2022-09-11T21:38:32.778Z,6.28
2022-09-11T21:41:01.065Z,7.45
2022-09-11T21:43:28.062Z,8.25
2022-09-11T21:45:54.602Z,12.02
2022-09-11T21:48:21.186Z,5.53
2022-09-11T21:50:47.716Z,14.80
2022-09-11T21:53:14.544Z,7.72
2022-09-11T21:55:43.257Z,8.20
2022-09-11T21:58:15.481Z,5.53
2022-09-11T22:00:43.350Z,12.70
2022-09-11T22:03:12.618Z,8.90
2022-09-11T22:05:43.388Z,6.80
2022-09-11T22:08:12.003Z,6.47
2022-09-11T22:10:47.337Z,7.22
2022-09-11T22:13:14.423Z,6.32
2022-09-11T22:15:45.726Z,8.30
2022-09-11T22:18:12.970Z,11.52
2022-09-11T22:20:41.507Z,5.65
2022-09-11T22:23:13.348Z,9.52
2022-09-11T22:25:40.887Z,7.85
2022-09-11T22:28:07.977Z,9.43
2022-09-11T22:30:34.611Z,9.60
2022-09-11T22:33:01.735Z,5.15
2022-09-11T22:35:28.837Z,8.98
2022-09-11T22:37:55.708Z,5.22
2022-09-11T22:40:22.260Z,6.40
2022-09-11T22:42:49.904Z,8.90
2022-09-11T22:45:17.039Z,10.23
2022-09-11T22:47:43.658Z,9.77
2022-09-11T22:50:10.254Z,7.43
2022-09-11T22:52:37.446Z,6.97
2022-09-11T22:55:05.788Z,7.72
2022-09-11T22:57:34.957Z,6.47
2022-09-11T23:00:02.472Z,8.20
2022-09-11T23:02:28.974Z,10.95
2022-09-11T23:05:14.014Z,6.63
2022-09-11T23:07:40.858Z,6.60
2022-09-11T23:10:09.803Z,10.27
2022-09-11T23:12:37.400Z,6.78
2022-09-11T23:15:04.485Z,6.25
2022-09-11T23:17:31.059Z,8.23
2022-09-11T23:19:57.579Z,7.70
2022-09-11T23:22:25.822Z,11.80
2022-09-11T23:24:52.398Z,11.55
2022-09-11T23:27:19.119Z,11.35
2022-09-11T23:29:45.639Z,7.90
2022-09-11T23:32:12.167Z,11.52
2022-09-11T23:34:38.665Z,10.90
2022-09-11T23:37:05.214Z,15.50
2022-09-11T23:39:31.873Z,10.30
2022-09-11T23:41:58.377Z,8.50
2022-09-11T23:44:24.962Z,9.65
2022-09-11T23:46:51.462Z,12.85
2022-09-11T23:49:18.006Z,11.32
2022-09-11T23:51:44.623Z,13.48
2022-09-11T23:54:11.113Z,11.10
2022-09-11T23:56:37.611Z,10.60
2022-09-11T23:59:04.126Z,12.20
